Needham, Massachusetts
Current Conditions -  °F | °C
As of 9:53 AM on Friday 28 Nov 2014 (Local Time) from KOWD Reporting Station
Overcast Overcast  
Wind Chill: 22°   Ceiling: 8000
Heat Index: 31°   Visibility: 10mi
Dew Point: 23°   Wind: 10mph
Humidity: 72%   Direction: 340°NNW
Pressure: 30.07"   Gusts: NA
Location:  42.28°N, 71.24°W
Report Text: KOWD 281453Z 34009KT 10SM SCT020 OVC080 M01/M05 A3007 RMK AO2 SLP182 60000 T10061050 51013
Loading
Personal Weather Stations






























Interactive Weather Map New forecast layout! Learn more

10-Day Weather Forecast

Advertisements
Track Severe Weather on mobile